Time;durP1;ratioP1;P1;durP2;ratioP2;P2;SDS_P1;SDS_P2;PMS_P1;PMS_P2;Temp;Humidity;BMP_temperature;BMP_pressure;BME280_temperature;BME280_humidity;BME280_pressure;Samples;Min_cycle;Max_cycle;Signal;HPM_P1;HPM_P2
2023/01/27 00:00:56;;;;;;;15.55;3.53;;;;;;;3.54;96.68;102335.69;5028211;28;20030;-57
2023/01/27 00:03:22;;;;;;;18.63;3.67;;;;;;;3.55;96.25;102337.38;5029335;28;20045;-59
2023/01/27 00:05:47;;;;;;;16.80;3.72;;;;;;;3.50;96.13;102329.75;5026614;28;20116;-57
2023/01/27 00:08:13;;;;;;;12.90;3.50;;;;;;;3.50;95.61;102334.13;5026014;28;20026;-58
2023/01/27 00:10:39;;;;;;;20.88;4.43;;;;;;;3.48;96.27;102336.00;5024394;28;20057;-57
2023/01/27 00:15:48;;;;;;;13.70;3.17;;;;;;;3.47;96.35;102329.06;5028015;28;20099;-57
2023/01/27 00:18:13;;;;;;;15.98;3.92;;;;;;;3.50;96.14;102329.75;5027109;28;20033;-58
2023/01/27 00:26:12;;;;;;;22.27;3.58;;;;;;;3.40;95.87;102319.81;5023188;28;20051;-57
2023/01/27 00:28:39;;;;;;;17.70;3.25;;;;;;;3.31;96.05;102306.22;5027095;28;20026;-58
2023/01/27 00:31:08;;;;;;;19.38;3.80;;;;;;;3.32;96.15;102321.03;5027576;28;20025;-57
2023/01/27 00:33:33;;;;;;;16.25;3.47;;;;;;;3.31;96.40;102329.81;5031174;28;20041;-58
2023/01/27 00:36:05;;;;;;;16.08;3.50;;;;;;;3.31;96.26;102332.44;5033740;28;20040;-57
2023/01/27 00:38:32;;;;;;;16.40;3.38;;;;;;;3.26;96.29;102330.97;5037679;28;20036;-57
2023/01/27 00:43:42;;;;;;;15.38;3.50;;;;;;;3.19;95.39;102331.28;5025084;28;20073;-57
2023/01/27 00:46:08;;;;;;;20.67;3.65;;;;;;;3.23;97.16;102330.22;5029306;28;20057;-58
2023/01/27 00:48:33;;;;;;;13.30;3.50;;;;;;;3.20;95.73;102332.97;5029743;28;20473;-58
2023/01/27 00:50:59;;;;;;;13.07;3.53;;;;;;;3.17;95.90;102338.38;5023890;28;20037;-60
2023/01/27 00:53:24;;;;;;;16.25;3.55;;;;;;;3.16;95.65;102333.22;5027734;28;20043;-57
2023/01/27 00:55:50;;;;;;;17.38;4.00;;;;;;;3.17;95.18;102332.28;5034401;28;20037;-57
2023/01/27 00:58:15;;;;;;;18.50;4.00;;;;;;;3.12;96.24;102336.91;5027022;28;20034;-57
2023/01/27 01:00:41;;;;;;;15.98;4.22;;;;;;;3.07;96.65;102343.22;5022936;28;20064;-58
2023/01/27 01:03:06;;;;;;;19.45;4.35;;;;;;;3.08;97.16;102339.69;5031283;28;20079;-57
2023/01/27 01:05:32;;;;;;;20.20;3.95;;;;;;;3.07;96.98;102345.81;5033232;28;20037;-57
2023/01/27 01:07:57;;;;;;;17.75;4.03;;;;;;;3.07;97.68;102348.44;5022209;28;20030;-57
2023/01/27 01:10:22;;;;;;;18.30;4.72;;;;;;;3.02;97.38;102345.22;5026166;28;20544;-61
2023/01/27 01:12:47;;;;;;;17.73;4.38;;;;;;;3.04;97.57;102338.13;5023891;28;20030;-58
2023/01/27 01:15:13;;;;;;;16.10;4.93;;;;;;;2.98;97.66;102338.44;5028297;28;20116;-57
2023/01/27 01:17:38;;;;;;;14.63;3.90;;;;;;;2.97;97.87;102336.75;5030421;28;20033;-59
2023/01/27 01:20:04;;;;;;;17.77;4.25;;;;;;;2.96;97.99;102343.75;5027195;28;20036;-58
2023/01/27 01:22:29;;;;;;;14.82;4.43;;;;;;;3.00;97.52;102352.31;5029069;28;20109;-57
2023/01/27 01:24:54;;;;;;;18.75;4.40;;;;;;;2.98;98.51;102351.53;5030298;28;20060;-60
2023/01/27 01:27:20;;;;;;;15.77;4.50;;;;;;;3.01;98.22;102355.78;5029627;28;20026;-57
2023/01/27 01:29:45;;;;;;;18.25;4.60;;;;;;;2.95;97.80;102354.28;5020787;28;20041;-57
2023/01/27 01:32:10;;;;;;;20.98;4.60;;;;;;;2.96;98.46;102361.22;5019622;28;20469;-57
2023/01/27 01:34:36;;;;;;;15.55;4.10;;;;;;;2.92;98.63;102355.28;5028990;28;20082;-57
2023/01/27 01:37:02;;;;;;;17.48;4.68;;;;;;;2.95;98.06;102354.28;5025803;28;20033;-57
2023/01/27 01:39:28;;;;;;;17.98;4.88;;;;;;;2.90;98.20;102361.53;5032616;28;20678;-59
2023/01/27 01:41:54;;;;;;;14.50;5.00;;;;;;;2.89;99.09;102365.06;5028796;28;20040;-58
2023/01/27 01:44:27;;;;;;;15.48;4.80;;;;;;;2.87;99.33;102366.91;5027888;28;20034;-56
2023/01/27 01:46:53;;;;;;;16.25;4.82;;;;;;;2.91;98.79;102365.88;5013798;28;20406;-56
2023/01/27 01:49:22;;;;;;;14.70;4.38;;;;;;;2.93;99.40;102356.16;5025974;28;20029;-57
2023/01/27 01:51:55;;;;;;;19.10;5.20;;;;;;;2.91;99.90;102358.00;5025861;28;20501;-57
2023/01/27 01:54:26;;;;;;;15.63;4.68;;;;;;;2.90;99.42;102361.53;5029932;28;20409;-57
2023/01/27 01:56:56;;;;;;;20.55;4.63;;;;;;;2.90;99.99;102357.13;5029364;28;20031;-58
2023/01/27 01:59:32;;;;;;;16.13;5.10;;;;;;;2.94;98.95;102352.59;5027448;28;20049;-57
2023/01/27 02:02:06;;;;;;;18.15;5.40;;;;;;;2.92;99.11;102357.06;5030250;28;20030;-57
2023/01/27 02:05:01;;;;;;;13.60;4.90;;;;;;;2.97;99.22;102355.09;5026530;28;20038;-57
2023/01/27 02:07:34;;;;;;;18.60;5.57;;;;;;;2.88;97.93;102363.38;5029537;28;20076;-57
2023/01/27 02:10:00;;;;;;;;;;;;;;;3.11;97.15;102359.63;5031045;28;20477;-58
2023/01/27 02:12:25;;;;;;;15.23;5.47;;;;;;;2.92;97.10;102364.94;5029390;28;19966;-58
2023/01/27 02:14:51;;;;;;;17.75;5.10;;;;;;;2.93;96.84;102356.16;5024680;28;20021;-56
2023/01/27 02:17:16;;;;;;;14.93;5.32;;;;;;;2.89;97.05;102357.22;5029140;28;20112;-57
2023/01/27 02:20:03;;;;;;;13.75;5.05;;;;;;;2.87;97.36;102356.44;5029481;28;20456;-59
2023/01/27 02:22:42;;;;;;;16.30;4.90;;;;;;;2.83;97.84;102361.81;5026465;28;20025;-57
2023/01/27 02:25:30;;;;;;;13.05;5.03;;;;;;;2.86;97.30;102360.81;5021383;28;20120;-56
2023/01/27 02:27:56;;;;;;;16.55;5.70;;;;;;;2.78;97.37;102363.81;5023060;28;20137;-58
2023/01/27 02:30:21;;;;;;;16.80;5.40;;;;;;;2.86;96.28;102362.59;5021509;28;20440;-57
2023/01/27 02:32:46;;;;;;;17.25;5.75;;;;;;;2.74;97.44;102364.88;5023335;28;20033;-57
2023/01/27 02:35:18;;;;;;;13.32;4.20;;;;;;;2.79;97.09;102370.75;5020484;28;20461;-57
2023/01/27 02:37:45;;;;;;;14.75;5.60;;;;;;;2.77;97.54;102372.59;5019932;28;20033;-57
2023/01/27 02:40:12;;;;;;;11.70;5.50;;;;;;;2.77;97.68;102382.22;5020759;28;20026;-56
2023/01/27 02:42:37;;;;;;;13.75;5.43;;;;;;;2.81;97.86;102382.00;5030022;28;20042;-58
2023/01/27 02:45:03;;;;;;;15.70;5.40;;;;;;;2.75;97.60;102379.69;5031340;28;20034;-56
2023/01/27 02:47:29;;;;;;;16.15;5.40;;;;;;;2.75;97.28;102381.44;5030934;28;20057;-57
2023/01/27 02:49:54;;;;;;;15.85;5.78;;;;;;;2.77;97.42;102377.81;5031091;28;20025;-57
2023/01/27 02:52:21;;;;;;;15.43;5.43;;;;;;;2.77;97.29;102377.81;5021556;28;20519;-57
2023/01/27 02:54:46;;;;;;;14.82;5.90;;;;;;;2.77;98.08;102375.19;5021324;28;20462;-57
2023/01/27 02:57:11;;;;;;;16.92;5.93;;;;;;;2.75;98.13;102384.06;5019712;28;20095;-57
2023/01/27 02:59:36;;;;;;;13.90;5.88;;;;;;;2.77;98.42;102383.06;5026741;28;20073;-60
2023/01/27 03:02:02;;;;;;;15.52;6.25;;;;;;;2.74;99.11;102377.97;5018815;28;20041;-57
2023/01/27 03:04:28;;;;;;;16.42;5.88;;;;;;;2.78;97.32;102376.94;5018948;28;20597;-57
2023/01/27 03:06:54;;;;;;;17.40;6.50;;;;;;;2.76;98.32;102376.13;5023627;28;20040;-58
2023/01/27 03:09:19;;;;;;;15.48;5.88;;;;;;;2.73;99.13;102381.53;5022247;28;20120;-59
2023/01/27 03:19:56;;;;;;;18.90;6.85;;;;;;;2.68;99.59;102388.75;5029273;28;20041;-57
2023/01/27 03:22:22;;;;;;;19.83;7.25;;;;;;;2.67;99.06;102387.06;5024101;28;20025;-57
2023/01/27 03:24:47;;;;;;;16.65;7.20;;;;;;;2.63;99.59;102386.34;5028453;28;20033;-57
2023/01/27 03:27:12;;;;;;;19.10;7.40;;;;;;;2.63;100.00;102380.25;5027908;28;20041;-57
2023/01/27 03:29:56;;;;;;;15.18;7.43;;;;;;;2.65;99.87;102378.41;5028223;28;20477;-57
2023/01/27 03:32:27;;;;;;;15.43;7.53;;;;;;;2.71;98.19;102391.22;5024336;28;20037;-57
2023/01/27 03:34:56;;;;;;;15.02;7.75;;;;;;;2.68;98.78;102394.00;5026541;28;20141;-57
2023/01/27 03:48:22;;;;;;;21.52;9.00;;;;;;;2.64;99.20;102409.00;5028336;28;20111;-57
2023/01/27 03:50:52;;;;;;;20.45;9.00;;;;;;;2.63;99.53;102406.44;5018401;28;20029;-57
2023/01/27 03:53:19;;;;;;;22.45;8.95;;;;;;;2.62;100.00;102408.19;5022790;28;20048;-56
2023/01/27 03:55:45;;;;;;;20.08;9.27;;;;;;;2.60;99.76;102406.56;5023697;28;20071;-56
2023/01/27 03:58:23;;;;;;;17.25;9.32;;;;;;;2.59;100.00;102410.13;5024195;28;20029;-59
2023/01/27 04:00:54;;;;;;;20.05;9.20;;;;;;;2.60;100.00;102415.28;5025195;28;20595;-57
2023/01/27 04:08:51;;;;;;;29.15;10.30;;;;;;;2.63;100.00;102419.53;5021880;28;20099;-59
2023/01/27 04:14:03;;;;;;;19.92;9.73;;;;;;;2.60;100.00;102419.66;5025465;28;20041;-57
2023/01/27 04:16:29;;;;;;;21.80;9.88;;;;;;;2.62;100.00;102416.06;5033490;28;20041;-58
2023/01/27 04:18:55;;;;;;;21.35;9.95;;;;;;;2.62;100.00;102420.47;5031298;28;20030;-57
2023/01/27 04:21:20;;;;;;;20.88;9.43;;;;;;;2.60;100.00;102409.19;5033091;28;20038;-57
2023/01/27 04:23:46;;;;;;;25.80;11.02;;;;;;;2.60;100.00;102411.81;5028331;28;20420;-56
2023/01/27 04:26:11;;;;;;;23.67;11.10;;;;;;;2.62;100.00;102412.59;5019732;28;20113;-56
2023/01/27 04:28:36;;;;;;;21.45;10.57;;;;;;;2.61;100.00;102418.78;5026466;28;20086;-60
2023/01/27 04:31:02;;;;;;;21.92;10.27;;;;;;;2.62;100.00;102416.06;5028706;28;20037;-59
2023/01/27 04:33:28;;;;;;;23.92;10.88;;;;;;;2.62;100.00;102415.22;5029074;28;20044;-57
2023/01/27 04:35:54;;;;;;;24.45;11.55;;;;;;;2.64;100.00;102418.63;5032322;28;20368;-57
2023/01/27 04:38:19;;;;;;;24.95;12.20;;;;;;;2.60;100.00;102412.66;5031518;28;20120;-58
2023/01/27 04:40:44;;;;;;;24.70;11.68;;;;;;;2.59;100.00;102421.44;5033678;28;20037;-57
2023/01/27 04:43:10;;;;;;;26.73;12.65;;;;;;;2.59;100.00;102431.06;5030230;28;20032;-57
2023/01/27 04:45:35;;;;;;;25.13;11.90;;;;;;;2.60;100.00;102422.28;5032982;28;20436;-56
2023/01/27 04:48:00;;;;;;;27.80;12.82;;;;;;;2.59;100.00;102425.81;5027630;28;20460;-57
2023/01/27 04:50:25;;;;;;;26.23;13.05;;;;;;;2.64;100.00;102429.09;5027211;28;20104;-58
2023/01/27 04:52:51;;;;;;;26.40;13.23;;;;;;;2.68;100.00;102430.66;5031425;28;20194;-57
2023/01/27 04:55:16;;;;;;;25.98;13.35;;;;;;;2.62;100.00;102430.94;5034128;28;20040;-56
2023/01/27 04:57:41;;;;;;;25.75;13.68;;;;;;;2.63;100.00;102427.41;5027048;28;20034;-57
2023/01/27 05:00:09;;;;;;;28.52;14.00;;;;;;;2.61;100.00;102431.88;5032336;28;20041;-58
2023/01/27 05:02:34;;;;;;;25.67;13.35;;;;;;;2.64;100.00;102439.56;5024112;28;20034;-57
2023/01/27 05:05:03;;;;;;;26.05;13.13;;;;;;;2.63;100.00;102430.03;5027686;28;20082;-57
2023/01/27 05:07:29;;;;;;;24.23;13.02;;;;;;;2.66;100.00;102438.59;5029074;28;20041;-59
2023/01/27 05:09:54;;;;;;;23.92;12.50;;;;;;;2.67;100.00;102439.44;5024262;28;20093;-57
2023/01/27 05:12:20;;;;;;;22.42;13.27;;;;;;;2.62;100.00;102436.19;5028530;28;20040;-59
2023/01/27 05:14:45;;;;;;;25.50;13.27;;;;;;;2.61;100.00;102447.59;5020363;28;20481;-57
2023/01/27 05:17:10;;;;;;;22.88;12.80;;;;;;;2.67;99.81;102456.00;5030763;28;20591;-57
2023/01/27 05:19:35;;;;;;;22.75;12.45;;;;;;;2.62;100.00;102457.97;5033060;28;20029;-56
2023/01/27 05:22:01;;;;;;;23.50;12.97;;;;;;;2.70;99.24;102447.16;5030630;28;20880;-58
2023/01/27 05:24:26;;;;;;;23.85;12.70;;;;;;;2.65;100.00;102446.50;5031321;28;20025;-57
2023/01/27 05:26:52;;;;;;;21.83;13.02;;;;;;;2.63;100.00;102458.81;5032615;28;20061;-56
2023/01/27 05:29:18;;;;;;;22.85;13.27;;;;;;;2.63;100.00;102448.34;5031160;28;20377;-56
2023/01/27 05:31:43;;;;;;;23.30;13.50;;;;;;;2.62;100.00;102457.13;5028177;28;20038;-57
2023/01/27 05:34:08;;;;;;;24.77;13.43;;;;;;;2.63;99.78;102461.44;5031285;28;20444;-61
2023/01/27 05:36:34;;;;;;;24.17;13.90;;;;;;;2.63;100.00;102464.94;5030832;28;20117;-57
2023/01/27 05:38:59;;;;;;;21.98;12.60;;;;;;;2.62;100.00;102465.00;5033115;28;20464;-56
2023/01/27 05:41:27;;;;;;;22.45;13.35;;;;;;;2.68;99.62;102468.16;5032862;28;20029;-57
2023/01/27 05:43:54;;;;;;;21.55;13.35;;;;;;;2.62;99.69;102473.69;5025760;28;20077;-57
2023/01/27 05:46:24;;;;;;;23.85;13.07;;;;;;;2.69;99.76;102463.78;5027929;28;20037;-57
2023/01/27 05:48:51;;;;;;;20.42;12.73;;;;;;;2.58;99.64;102474.75;5031730;28;20364;-57
2023/01/27 05:51:19;;;;;;;23.00;12.05;;;;;;;2.63;99.08;102475.41;5026096;28;20048;-57
2023/01/27 05:53:45;;;;;;;22.10;11.93;;;;;;;2.64;98.41;102476.25;5026304;28;20025;-56
2023/01/27 05:56:12;;;;;;;20.15;12.35;;;;;;;2.67;97.03;102470.88;5025552;28;20461;-56
2023/01/27 05:58:37;;;;;;;20.85;12.13;;;;;;;2.72;97.58;102479.38;5018268;28;20056;-59
2023/01/27 06:01:21;;;;;;;22.42;13.45;;;;;;;2.71;97.53;102477.66;5017778;28;20037;-59
2023/01/27 06:03:47;;;;;;;;;;;;;;;2.81;97.91;102489.44;5020266;28;20123;-57
2023/01/27 06:06:14;;;;;;;18.77;11.57;;;;;;;2.77;96.36;102493.09;5024925;28;19921;-57
2023/01/27 06:08:39;;;;;;;20.38;12.35;;;;;;;2.69;97.77;102485.63;5020522;28;20022;-58
2023/01/27 06:11:06;;;;;;;19.23;11.70;;;;;;;2.68;98.04;102488.28;5024464;28;20030;-58
2023/01/27 06:13:34;;;;;;;19.10;11.73;;;;;;;2.69;98.01;102484.75;5027424;28;20021;-55
2023/01/27 06:16:01;;;;;;;20.67;12.07;;;;;;;2.68;98.76;102489.13;5019622;28;20103;-59
2023/01/27 06:18:26;;;;;;;20.02;11.60;;;;;;;2.69;98.93;102484.75;5025677;28;20030;-56
2023/01/27 06:20:52;;;;;;;19.38;12.18;;;;;;;2.68;98.58;102494.34;5022524;28;20071;-56
2023/01/27 06:23:17;;;;;;;20.05;12.25;;;;;;;2.66;98.56;102490.13;5023519;28;20444;-54
2023/01/27 06:25:46;;;;;;;20.10;12.75;;;;;;;2.68;98.17;102493.53;5025545;28;20129;-55
2023/01/27 06:28:12;;;;;;;19.33;11.85;;;;;;;2.69;98.32;102500.47;5022841;28;20153;-56
2023/01/27 06:30:39;;;;;;;19.40;12.23;;;;;;;2.70;98.58;102491.69;5026313;28;20068;-54
2023/01/27 06:33:05;;;;;;;19.30;11.38;;;;;;;2.73;97.31;102496.81;5021608;28;20033;-56
2023/01/27 06:35:31;;;;;;;20.77;12.20;;;;;;;2.74;97.75;102493.25;5023950;28;20782;-56
2023/01/27 06:37:58;;;;;;;17.73;10.57;;;;;;;2.74;97.96;102498.50;5025562;28;20089;-57
2023/01/27 06:40:25;;;;;;;17.15;10.95;;;;;;;2.73;97.34;102495.94;5027042;28;20121;-56
2023/01/27 06:42:50;;;;;;;18.00;10.93;;;;;;;2.73;97.52;102501.19;5024818;28;20513;-56
2023/01/27 06:45:16;;;;;;;17.65;11.02;;;;;;;2.73;97.95;102502.03;5028660;28;20056;-56
2023/01/27 06:47:41;;;;;;;19.13;10.35;;;;;;;2.77;97.05;102502.75;5027295;28;20062;-56
2023/01/27 06:50:08;;;;;;;20.55;11.07;;;;;;;2.74;97.48;102502.88;5029771;28;20057;-56
2023/01/27 06:52:34;;;;;;;16.88;11.32;;;;;;;2.73;97.58;102507.28;5026997;28;20033;-56
2023/01/27 06:54:59;;;;;;;17.90;11.30;;;;;;;2.72;97.58;102499.47;5028625;28;20085;-56
2023/01/27 06:57:25;;;;;;;17.92;11.02;;;;;;;2.72;97.82;102500.34;5020323;28;20032;-56
2023/01/27 06:59:50;;;;;;;17.27;10.73;;;;;;;2.73;98.61;102507.28;5029191;28;20037;-56
2023/01/27 07:02:16;;;;;;;18.42;10.93;;;;;;;2.74;97.27;102503.72;5023457;28;20029;-56
2023/01/27 07:04:41;;;;;;;18.00;11.27;;;;;;;2.74;98.29;102506.34;5022469;28;20112;-56
2023/01/27 07:07:06;;;;;;;15.70;10.18;;;;;;;2.74;97.77;102508.97;5022743;28;20037;-56
2023/01/27 07:09:31;;;;;;;17.27;10.70;;;;;;;2.74;97.21;102508.97;5026103;28;20053;-54
2023/01/27 07:11:57;;;;;;;17.80;10.25;;;;;;;2.73;97.78;102511.66;5023500;28;20080;-57
2023/01/27 07:14:22;;;;;;;17.60;10.02;;;;;;;2.75;96.87;102508.03;5021611;28;20029;-57
2023/01/27 07:16:47;;;;;;;16.45;10.88;;;;;;;2.71;96.88;102509.09;5022819;28;20038;-56
2023/01/27 07:19:13;;;;;;;15.05;9.18;;;;;;;2.72;97.02;102510.81;5021533;28;21748;-55
2023/01/27 07:21:38;;;;;;;14.93;9.57;;;;;;;2.71;97.19;102508.25;5025986;28;20052;-56
2023/01/27 07:24:04;;;;;;;16.70;10.00;;;;;;;2.72;97.10;102508.19;5020223;28;20026;-62
2023/01/27 07:26:29;;;;;;;14.65;8.95;;;;;;;2.73;97.11;102517.75;5021166;28;20039;-58
2023/01/27 07:28:56;;;;;;;14.30;8.98;;;;;;;2.71;97.34;102509.09;5019820;28;20495;-56
2023/01/27 07:31:21;;;;;;;12.48;8.35;;;;;;;2.76;96.77;102512.38;5021493;28;20036;-58
2023/01/27 07:33:46;;;;;;;12.25;7.82;;;;;;;2.77;96.23;102511.44;5019856;28;20396;-57
2023/01/27 07:36:12;;;;;;;12.95;8.00;;;;;;;2.78;96.65;102526.25;5019487;28;20746;-61
2023/01/27 07:38:37;;;;;;;12.77;8.27;;;;;;;2.80;95.94;102523.56;5021969;28;20034;-58
2023/01/27 07:41:06;;;;;;;12.82;8.18;;;;;;;2.81;96.27;102523.50;5020214;28;20520;-57
2023/01/27 07:43:32;;;;;;;17.58;10.88;;;;;;;2.80;95.93;102526.16;5027939;28;20029;-57
2023/01/27 07:45:58;;;;;;;16.02;10.32;;;;;;;2.81;95.27;102536.59;5027869;28;20028;-58
2023/01/27 07:48:23;;;;;;;15.93;9.48;;;;;;;2.87;95.45;102529.38;5018683;28;20050;-58
2023/01/27 07:50:49;;;;;;;13.13;8.40;;;;;;;2.86;95.62;102533.75;5022081;28;20397;-57
2023/01/27 07:53:14;;;;;;;13.80;8.20;;;;;;;2.88;95.14;102536.31;5025174;28;20033;-58
2023/01/27 07:55:40;;;;;;;17.77;7.88;;;;;;;2.87;95.53;102539.88;5022189;28;20100;-56
2023/01/27 07:58:05;;;;;;;10.82;6.85;;;;;;;2.89;95.69;102548.50;5023516;28;20037;-58
2023/01/27 08:00:31;;;;;;;10.73;7.00;;;;;;;2.90;95.40;102544.94;5020305;28;20037;-57
2023/01/27 08:02:58;;;;;;;12.20;7.43;;;;;;;2.89;95.46;102538.00;5025669;28;20033;-57
2023/01/27 08:05:24;;;;;;;11.48;7.15;;;;;;;2.89;95.51;102543.25;5020911;28;20030;-58
2023/01/27 08:07:50;;;;;;;11.57;7.50;;;;;;;2.90;95.48;102544.94;5023943;28;20484;-61
2023/01/27 08:10:17;;;;;;;12.52;8.20;;;;;;;2.91;96.00;102537.03;5026604;28;20049;-57
2023/01/27 08:12:43;;;;;;;14.88;8.50;;;;;;;2.90;95.75;102529.22;5022233;28;22193;-56
2023/01/27 08:15:08;;;;;;;14.68;9.00;;;;;;;2.91;95.99;102541.44;5026602;28;20037;-57
2023/01/27 08:17:34;;;;;;;18.85;9.63;;;;;;;2.90;96.45;102544.94;5026069;28;20041;-57
2023/01/27 08:19:59;;;;;;;18.27;10.60;;;;;;;2.94;95.16;102536.03;5027653;28;20469;-57
2023/01/27 08:22:26;;;;;;;20.27;11.95;;;;;;;2.93;95.56;102540.44;5026416;28;20041;-57
2023/01/27 08:24:51;;;;;;;15.57;9.82;;;;;;;2.94;95.66;102549.16;5022083;28;20034;-58
2023/01/27 08:27:17;;;;;;;14.32;8.60;;;;;;;2.93;95.90;102555.31;5022830;28;20129;-57
2023/01/27 08:29:43;;;;;;;13.88;8.07;;;;;;;2.92;95.83;102548.38;5024445;28;20050;-57
2023/01/27 08:32:09;;;;;;;11.65;7.78;;;;;;;2.93;95.71;102555.31;5024094;28;20064;-57
2023/01/27 08:34:35;;;;;;;10.98;7.50;;;;;;;2.94;95.63;102551.75;5024944;28;20025;-57
2023/01/27 08:37:01;;;;;;;12.27;8.00;;;;;;;2.90;95.94;102548.44;5021235;28;20584;-57
2023/01/27 08:39:26;;;;;;;13.65;8.38;;;;;;;2.93;95.99;102560.56;5024455;28;20061;-57
2023/01/27 08:41:51;;;;;;;12.07;7.75;;;;;;;2.93;96.35;102558.78;5023916;28;20388;-56
2023/01/27 08:44:17;;;;;;;14.27;8.20;;;;;;;2.94;96.54;102562.25;5024178;28;20025;-57
2023/01/27 08:46:42;;;;;;;13.68;7.93;;;;;;;2.95;96.13;102563.94;5026218;28;20562;-57
2023/01/27 08:49:08;;;;;;;13.05;8.13;;;;;;;2.95;96.16;102559.56;5026778;28;20099;-57
2023/01/27 08:51:33;;;;;;;12.38;8.07;;;;;;;2.98;96.15;102566.44;5030354;28;20040;-58
2023/01/27 08:53:58;;;;;;;14.27;7.97;;;;;;;2.97;95.98;102570.00;5030941;28;20037;-56
2023/01/27 08:56:24;;;;;;;12.80;8.32;;;;;;;2.98;96.17;102578.69;5029833;28;20037;-57
2023/01/27 08:58:51;;;;;;;14.93;8.63;;;;;;;2.98;96.60;102571.69;5032814;28;20114;-57
2023/01/27 09:01:17;;;;;;;19.15;11.27;;;;;;;3.01;96.81;102583.81;5030770;28;20030;-57
2023/01/27 09:03:43;;;;;;;22.25;12.90;;;;;;;2.98;96.65;102584.78;5031037;28;20021;-56
2023/01/27 09:06:11;;;;;;;25.40;14.57;;;;;;;3.00;96.47;102598.66;5028868;28;20055;-57
2023/01/27 09:08:36;;;;;;;25.27;14.57;;;;;;;2.98;96.52;102595.28;5022873;28;20033;-56
2023/01/27 09:11:16;;;;;;;27.10;14.30;;;;;;;3.01;96.16;102602.97;5021009;28;20103;-58
2023/01/27 09:13:42;;;;;;;21.38;12.60;;;;;;;3.07;95.30;102597.47;5028441;28;20033;-57
2023/01/27 09:16:08;;;;;;;20.73;11.98;;;;;;;2.99;95.63;102591.72;5033505;28;20041;-58
2023/01/27 09:18:34;;;;;;;20.63;11.38;;;;;;;3.00;95.88;102603.91;5030332;28;20033;-57
2023/01/27 09:21:06;;;;;;;14.13;9.50;;;;;;;3.08;95.71;102599.19;5032046;28;20035;-57
2023/01/27 09:23:33;;;;;;;14.10;9.02;;;;;;;3.02;95.59;102591.59;5028717;28;20097;-56
2023/01/27 09:25:58;;;;;;;11.57;8.43;;;;;;;3.05;95.88;102595.84;5031776;28;20041;-58
2023/01/27 09:28:23;;;;;;;12.15;8.23;;;;;;;3.09;95.75;102598.28;5023814;28;20030;-57
2023/01/27 09:30:49;;;;;;;12.77;7.43;;;;;;;3.14;94.50;102599.81;5031638;28;20041;-57
2023/01/27 09:33:14;;;;;;;11.35;7.32;;;;;;;3.15;94.90;102601.53;5025233;28;20075;-56
2023/01/27 09:35:51;;;;;;;10.35;7.30;;;;;;;3.14;94.64;102599.81;5033603;28;20084;-57
2023/01/27 09:38:21;;;;;;;9.63;6.68;;;;;;;3.23;92.75;102602.91;5031921;28;20037;-58
2023/01/27 09:41:11;;;;;;;11.23;7.00;;;;;;;3.22;94.41;102610.81;5032136;28;20031;-57
2023/01/27 09:43:40;;;;;;;10.15;7.15;;;;;;;3.22;94.51;102608.19;5025249;28;20028;-57
2023/01/27 09:46:32;;;;;;;10.15;6.75;;;;;;;3.30;92.88;102608.69;5031284;28;20022;-56
2023/01/27 09:49:13;;;;;;;8.80;6.50;;;;;;;3.32;92.90;102604.25;5026015;28;20048;-58
2023/01/27 09:51:38;;;;;;;12.00;6.38;;;;;;;3.27;91.28;102610.59;5025237;28;20038;-56
2023/01/27 09:54:41;;;;;;;9.18;6.78;;;;;;;3.33;92.08;102608.56;5032374;28;20033;-56
2023/01/27 09:57:42;;;;;;;8.43;6.47;;;;;;;3.28;92.91;102615.78;5032637;28;20021;-57
2023/01/27 10:00:31;;;;;;;7.70;6.40;;;;;;;3.21;93.07;102619.63;5029309;28;20121;-56
2023/01/27 10:03:23;;;;;;;10.23;6.07;;;;;;;3.37;91.96;102617.16;5025024;28;20499;-57
2023/01/27 10:06:18;;;;;;;9.43;5.72;;;;;;;3.49;91.74;102618.34;5030749;28;20045;-57
2023/01/27 10:09:19;;;;;;;8.98;5.65;;;;;;;3.30;91.67;102627.06;5030489;28;20430;-58
2023/01/27 10:12:03;;;;;;;8.90;5.75;;;;;;;3.39;91.79;102624.94;5031228;28;20063;-58
2023/01/27 10:15:05;;;;;;;9.05;6.00;;;;;;;3.23;92.44;102625.63;5030034;28;20492;-59
2023/01/27 10:17:49;;;;;;;7.75;5.88;;;;;;;3.30;91.88;102627.06;5029036;28;20034;-59
2023/01/27 10:20:23;;;;;;;9.57;6.20;;;;;;;3.28;92.35;102626.28;5030148;28;20025;-56
2023/01/27 10:23:00;;;;;;;7.07;5.75;;;;;;;3.22;92.67;102631.81;5022639;28;20030;-57
2023/01/27 10:26:03;;;;;;;7.53;6.20;;;;;;;3.28;91.45;102628.03;5020259;28;20365;-57
2023/01/27 10:28:30;;;;;;;9.15;6.38;;;;;;;3.32;92.12;102614.75;4983859;28;20038;-60
2023/01/27 10:31:14;;;;;;;8.07;5.40;;;;;;;3.30;90.72;102606.06;5014098;28;20409;-58
2023/01/27 10:33:54;;;;;;;9.35;6.25;;;;;;;3.30;91.97;102613.94;5023323;28;20078;-57
2023/01/27 10:36:39;;;;;;;9.65;6.50;;;;;;;3.33;90.86;102605.94;5020715;28;20053;-56
2023/01/27 10:39:42;;;;;;;8.32;6.25;;;;;;;3.36;92.22;102612.81;5032120;28;20033;-57
2023/01/27 10:42:13;;;;;;;10.75;6.30;;;;;;;3.37;90.85;102611.91;5019171;28;20032;-57
2023/01/27 10:44:54;;;;;;;23.90;7.47;;;;;;;3.40;90.88;102614.38;5024049;28;20084;-57
2023/01/27 10:47:39;;;;;;;9.93;6.80;;;;;;;3.43;91.79;102610.75;5022129;28;20049;-57
2023/01/27 10:50:36;;;;;;;10.05;6.90;;;;;;;3.51;91.53;102616.50;5031893;28;20034;-57
2023/01/27 10:53:10;;;;;;;13.52;7.05;;;;;;;3.41;91.43;102617.84;5017394;28;20045;-57
2023/01/27 10:55:58;;;;;;;11.05;7.15;;;;;;;3.57;91.37;102615.38;5030961;28;20064;-57
2023/01/27 10:58:46;;;;;;;10.80;7.60;;;;;;;3.47;91.92;102607.06;5030674;28;20068;-57
2023/01/27 11:01:15;;;;;;;8.65;6.57;;;;;;;3.52;90.20;102607.72;5019320;28;20025;-57
2023/01/27 11:03:48;;;;;;;7.80;6.00;;;;;;;3.53;90.49;102605.94;5030360;28;20029;-57
2023/01/27 11:06:16;;;;;;;8.43;6.18;;;;;;;3.48;90.93;102603.53;5031294;28;20825;-57
2023/01/27 11:08:46;;;;;;;7.05;5.88;;;;;;;3.46;90.01;102600.97;5026682;28;20086;-58
2023/01/27 11:14:03;;;;;;;8.55;5.65;;;;;;;3.42;90.71;102609.06;5031301;28;20076;-57
2023/01/27 11:16:37;;;;;;;9.88;5.80;;;;;;;3.43;90.49;102601.13;5026888;28;20136;-57
2023/01/27 11:19:39;;;;;;;7.50;5.80;;;;;;;3.42;92.24;102609.06;5025889;28;20029;-58
2023/01/27 11:22:16;;;;;;;8.65;5.72;;;;;;;3.47;88.98;102601.84;5008448;28;20132;-56
2023/01/27 11:24:46;;;;;;;7.82;5.45;;;;;;;3.36;88.91;102605.78;5025251;28;20123;-57
2023/01/27 11:27:21;;;;;;;7.38;5.50;;;;;;;3.47;89.35;102596.59;5023577;28;20469;-57
2023/01/27 11:29:55;;;;;;;6.60;5.38;;;;;;;3.28;90.98;102601.81;5024310;28;20117;-57
2023/01/27 11:32:26;;;;;;;7.88;5.55;;;;;;;3.30;90.88;102606.06;5024374;28;20025;-58
2023/01/27 11:35:06;;;;;;;7.75;5.90;;;;;;;3.31;91.51;102602.53;5024592;28;20115;-57
2023/01/27 11:37:36;;;;;;;6.70;5.57;;;;;;;3.27;91.50;102608.84;5027589;28;20113;-57
2023/01/27 11:40:03;;;;;;;7.90;5.90;;;;;;;3.30;91.54;102610.47;5019060;28;20052;-56
2023/01/27 11:42:34;;;;;;;8.75;5.90;;;;;;;3.29;92.98;102599.13;5022701;28;20037;-58
2023/01/27 11:45:00;;;;;;;8.10;5.88;;;;;;;3.28;92.07;102602.69;5014621;28;20036;-57
2023/01/27 11:47:39;;;;;;;8.80;5.93;;;;;;;3.31;91.69;102594.66;5027164;28;20052;-57
2023/01/27 11:50:11;;;;;;;8.20;5.55;;;;;;;3.35;91.47;102596.22;5025349;28;20045;-58
2023/01/27 11:52:37;;;;;;;8.45;5.90;;;;;;;3.36;91.91;102592.69;5016417;28;20053;-57
2023/01/27 11:55:17;;;;;;;8.27;6.13;;;;;;;3.56;91.60;102590.88;5031432;28;20029;-56
2023/01/27 11:57:46;;;;;;;9.52;6.18;;;;;;;3.55;90.79;102597.06;5018888;28;20392;-56
2023/01/27 12:00:28;;;;;;;7.85;5.88;;;;;;;3.55;91.24;102589.19;5029712;28;20033;-57
2023/01/27 12:03:02;;;;;;;8.98;6.45;;;;;;;3.54;91.39;102584.88;5027639;28;20078;-57
2023/01/27 12:05:35;;;;;;;8.52;6.50;;;;;;;3.59;91.39;102592.53;5028611;28;20030;-56
2023/01/27 12:08:03;;;;;;;8.70;6.55;;;;;;;3.56;91.74;102590.88;5029374;28;20025;-57
2023/01/27 12:10:43;;;;;;;14.15;8.68;;;;;;;3.62;91.28;102585.34;5030597;28;20037;-57
2023/01/27 12:13:16;;;;;;;9.25;6.65;;;;;;;3.66;90.26;102582.59;5025844;28;20025;-59
2023/01/27 12:15:52;;;;;;;9.25;6.72;;;;;;;3.60;90.94;102581.97;5029966;28;20029;-57